sensor_id;sensor_type;location;lat;lon;timestamp;P1;durP1;ratioP1;P2;durP2;ratioP2
83245;SDS011;73140;46.754;17.714;2024-03-08T00:01:48;5.00;;;4.50;;
83245;SDS011;73140;46.754;17.714;2024-03-08T00:04:15;4.85;;;4.45;;
83245;SDS011;73140;46.754;17.714;2024-03-08T00:06:41;3.92;;;3.63;;
83245;SDS011;73140;46.754;17.714;2024-03-08T00:09:09;4.47;;;4.05;;
83245;SDS011;73140;46.754;17.714;2024-03-08T00:11:35;4.55;;;4.15;;
83245;SDS011;73140;46.754;17.714;2024-03-08T00:14:01;4.50;;;4.10;;
83245;SDS011;73140;46.754;17.714;2024-03-08T00:16:27;4.78;;;4.38;;
83245;SDS011;73140;46.754;17.714;2024-03-08T00:18:53;4.57;;;4.18;;
83245;SDS011;73140;46.754;17.714;2024-03-08T00:21:20;4.15;;;3.85;;
83245;SDS011;73140;46.754;17.714;2024-03-08T00:23:46;4.38;;;4.07;;
83245;SDS011;73140;46.754;17.714;2024-03-08T00:26:12;4.30;;;4.00;;
83245;SDS011;73140;46.754;17.714;2024-03-08T00:28:38;4.55;;;4.13;;
83245;SDS011;73140;46.754;17.714;2024-03-08T00:31:04;4.40;;;4.00;;
83245;SDS011;73140;46.754;17.714;2024-03-08T00:33:32;4.60;;;4.22;;
83245;SDS011;73140;46.754;17.714;2024-03-08T00:35:58;4.10;;;3.70;;
83245;SDS011;73140;46.754;17.714;2024-03-08T00:38:25;4.50;;;4.10;;
83245;SDS011;73140;46.754;17.714;2024-03-08T00:40:51;4.40;;;4.00;;
83245;SDS011;73140;46.754;17.714;2024-03-08T00:43:17;4.45;;;4.05;;
83245;SDS011;73140;46.754;17.714;2024-03-08T00:45:43;4.68;;;4.28;;
83245;SDS011;73140;46.754;17.714;2024-03-08T00:48:09;4.25;;;3.85;;
83245;SDS011;73140;46.754;17.714;2024-03-08T00:50:36;4.53;;;4.13;;
83245;SDS011;73140;46.754;17.714;2024-03-08T00:53:02;4.50;;;4.10;;
83245;SDS011;73140;46.754;17.714;2024-03-08T00:55:31;4.63;;;4.22;;
83245;SDS011;73140;46.754;17.714;2024-03-08T00:57:57;4.55;;;4.15;;
83245;SDS011;73140;46.754;17.714;2024-03-08T01:00:23;4.43;;;4.03;;
83245;SDS011;73140;46.754;17.714;2024-03-08T01:02:49;4.47;;;4.07;;
83245;SDS011;73140;46.754;17.714;2024-03-08T01:05:15;4.57;;;4.18;;
83245;SDS011;73140;46.754;17.714;2024-03-08T01:07:41;4.70;;;4.20;;
83245;SDS011;73140;46.754;17.714;2024-03-08T01:10:07;4.60;;;4.20;;
83245;SDS011;73140;46.754;17.714;2024-03-08T01:12:36;4.70;;;4.30;;
83245;SDS011;73140;46.754;17.714;2024-03-08T01:15:02;4.50;;;4.10;;
83245;SDS011;73140;46.754;17.714;2024-03-08T01:17:28;4.05;;;3.75;;
83245;SDS011;73140;46.754;17.714;2024-03-08T01:19:54;4.15;;;3.83;;
83245;SDS011;73140;46.754;17.714;2024-03-08T01:22:20;4.43;;;4.03;;
83245;SDS011;73140;46.754;17.714;2024-03-08T01:24:48;4.60;;;4.20;;
83245;SDS011;73140;46.754;17.714;2024-03-08T01:27:14;4.95;;;4.45;;
83245;SDS011;73140;46.754;17.714;2024-03-08T01:29:41;5.07;;;4.68;;
83245;SDS011;73140;46.754;17.714;2024-03-08T01:32:08;4.78;;;4.38;;
83245;SDS011;73140;46.754;17.714;2024-03-08T01:34:34;5.10;;;4.70;;
83245;SDS011;73140;46.754;17.714;2024-03-08T01:37:00;5.70;;;5.20;;
83245;SDS011;73140;46.754;17.714;2024-03-08T01:39:26;5.70;;;5.20;;
83245;SDS011;73140;46.754;17.714;2024-03-08T01:41:52;5.57;;;5.07;;
83245;SDS011;73140;46.754;17.714;2024-03-08T01:44:19;5.35;;;4.85;;
83245;SDS011;73140;46.754;17.714;2024-03-08T01:46:47;4.95;;;4.53;;
83245;SDS011;73140;46.754;17.714;2024-03-08T01:49:14;5.78;;;5.25;;
83245;SDS011;73140;46.754;17.714;2024-03-08T01:51:44;5.15;;;4.75;;
83245;SDS011;73140;46.754;17.714;2024-03-08T01:54:10;5.43;;;4.93;;
83245;SDS011;73140;46.754;17.714;2024-03-08T01:56:38;5.35;;;4.85;;
83245;SDS011;73140;46.754;17.714;2024-03-08T01:59:05;5.32;;;4.82;;
83245;SDS011;73140;46.754;17.714;2024-03-08T02:01:33;5.60;;;5.10;;
83245;SDS011;73140;46.754;17.714;2024-03-08T02:04:01;5.95;;;5.35;;
83245;SDS011;73140;46.754;17.714;2024-03-08T02:06:27;5.45;;;4.97;;
83245;SDS011;73140;46.754;17.714;2024-03-08T02:08:53;5.43;;;4.93;;
83245;SDS011;73140;46.754;17.714;2024-03-08T02:11:19;5.03;;;4.53;;
83245;SDS011;73140;46.754;17.714;2024-03-08T02:13:46;4.93;;;4.43;;
83245;SDS011;73140;46.754;17.714;2024-03-08T02:16:12;5.10;;;4.60;;
83245;SDS011;73140;46.754;17.714;2024-03-08T02:18:38;5.03;;;4.53;;
83245;SDS011;73140;46.754;17.714;2024-03-08T02:21:06;4.85;;;4.45;;
83245;SDS011;73140;46.754;17.714;2024-03-08T02:23:33;5.45;;;4.95;;
83245;SDS011;73140;46.754;17.714;2024-03-08T02:26:00;5.60;;;5.10;;
83245;SDS011;73140;46.754;17.714;2024-03-08T02:28:26;5.00;;;4.60;;
83245;SDS011;73140;46.754;17.714;2024-03-08T02:30:53;5.40;;;4.90;;
83245;SDS011;73140;46.754;17.714;2024-03-08T02:33:21;4.97;;;4.57;;
83245;SDS011;73140;46.754;17.714;2024-03-08T02:35:48;5.40;;;4.90;;
83245;SDS011;73140;46.754;17.714;2024-03-08T02:38:16;5.35;;;4.85;;
83245;SDS011;73140;46.754;17.714;2024-03-08T02:40:44;5.05;;;4.65;;
83245;SDS011;73140;46.754;17.714;2024-03-08T02:43:10;5.50;;;5.00;;
83245;SDS011;73140;46.754;17.714;2024-03-08T02:45:37;6.75;;;6.05;;
83245;SDS011;73140;46.754;17.714;2024-03-08T02:48:04;6.28;;;5.75;;
83245;SDS011;73140;46.754;17.714;2024-03-08T02:50:33;5.90;;;5.35;;
83245;SDS011;73140;46.754;17.714;2024-03-08T02:53:02;6.00;;;5.50;;
83245;SDS011;73140;46.754;17.714;2024-03-08T02:55:30;7.07;;;6.38;;
83245;SDS011;73140;46.754;17.714;2024-03-08T02:57:57;6.75;;;6.10;;
83245;SDS011;73140;46.754;17.714;2024-03-08T03:00:23;7.22;;;6.55;;
83245;SDS011;73140;46.754;17.714;2024-03-08T03:02:49;6.93;;;6.32;;
83245;SDS011;73140;46.754;17.714;2024-03-08T03:05:19;6.85;;;6.22;;
83245;SDS011;73140;46.754;17.714;2024-03-08T03:07:45;8.23;;;7.25;;
83245;SDS011;73140;46.754;17.714;2024-03-08T03:10:11;7.05;;;6.45;;
83245;SDS011;73140;46.754;17.714;2024-03-08T03:12:45;7.55;;;6.80;;
83245;SDS011;73140;46.754;17.714;2024-03-08T03:15:11;7.47;;;6.78;;
83245;SDS011;73140;46.754;17.714;2024-03-08T03:17:38;6.88;;;6.20;;
83245;SDS011;73140;46.754;17.714;2024-03-08T03:20:06;6.70;;;6.10;;
83245;SDS011;73140;46.754;17.714;2024-03-08T03:22:38;7.43;;;6.75;;
83245;SDS011;73140;46.754;17.714;2024-03-08T03:25:04;7.10;;;6.40;;
83245;SDS011;73140;46.754;17.714;2024-03-08T03:27:32;7.00;;;6.40;;
83245;SDS011;73140;46.754;17.714;2024-03-08T03:29:59;6.97;;;6.38;;
83245;SDS011;73140;46.754;17.714;2024-03-08T03:32:45;7.03;;;6.35;;
83245;SDS011;73140;46.754;17.714;2024-03-08T03:35:12;6.63;;;5.93;;
83245;SDS011;73140;46.754;17.714;2024-03-08T03:37:40;6.20;;;5.70;;
83245;SDS011;73140;46.754;17.714;2024-03-08T03:40:08;6.32;;;5.72;;
83245;SDS011;73140;46.754;17.714;2024-03-08T03:42:35;6.75;;;6.15;;
83245;SDS011;73140;46.754;17.714;2024-03-08T03:45:05;6.47;;;5.88;;
83245;SDS011;73140;46.754;17.714;2024-03-08T03:47:31;7.03;;;6.20;;
83245;SDS011;73140;46.754;17.714;2024-03-08T03:49:57;6.38;;;5.78;;
83245;SDS011;73140;46.754;17.714;2024-03-08T03:52:27;6.32;;;5.72;;
83245;SDS011;73140;46.754;17.714;2024-03-08T03:54:53;6.97;;;6.38;;
83245;SDS011;73140;46.754;17.714;2024-03-08T03:57:19;5.80;;;5.28;;
83245;SDS011;73140;46.754;17.714;2024-03-08T03:59:48;6.32;;;5.82;;
83245;SDS011;73140;46.754;17.714;2024-03-08T04:02:15;6.55;;;5.95;;
83245;SDS011;73140;46.754;17.714;2024-03-08T04:04:42;6.00;;;5.40;;
83245;SDS011;73140;46.754;17.714;2024-03-08T04:07:08;5.72;;;5.22;;
83245;SDS011;73140;46.754;17.714;2024-03-08T04:09:35;6.47;;;5.88;;
83245;SDS011;73140;46.754;17.714;2024-03-08T04:12:01;6.68;;;6.07;;
83245;SDS011;73140;46.754;17.714;2024-03-08T04:14:27;5.40;;;4.90;;
83245;SDS011;73140;46.754;17.714;2024-03-08T04:16:53;6.03;;;5.53;;
83245;SDS011;73140;46.754;17.714;2024-03-08T04:19:20;6.28;;;5.68;;
83245;SDS011;73140;46.754;17.714;2024-03-08T04:21:46;5.88;;;5.38;;
83245;SDS011;73140;46.754;17.714;2024-03-08T04:24:12;6.10;;;5.50;;
83245;SDS011;73140;46.754;17.714;2024-03-08T04:26:38;6.15;;;5.57;;
83245;SDS011;73140;46.754;17.714;2024-03-08T04:29:04;6.38;;;5.78;;
83245;SDS011;73140;46.754;17.714;2024-03-08T04:31:31;6.40;;;5.80;;
83245;SDS011;73140;46.754;17.714;2024-03-08T04:33:57;6.35;;;5.75;;
83245;SDS011;73140;46.754;17.714;2024-03-08T04:36:24;5.95;;;5.45;;
83245;SDS011;73140;46.754;17.714;2024-03-08T04:38:50;6.55;;;5.95;;
83245;SDS011;73140;46.754;17.714;2024-03-08T04:41:16;6.50;;;5.90;;
83245;SDS011;73140;46.754;17.714;2024-03-08T04:43:43;6.07;;;5.47;;
83245;SDS011;73140;46.754;17.714;2024-03-08T04:46:10;6.22;;;5.50;;
83245;SDS011;73140;46.754;17.714;2024-03-08T04:48:36;6.50;;;5.90;;
83245;SDS011;73140;46.754;17.714;2024-03-08T04:51:02;6.20;;;5.60;;
83245;SDS011;73140;46.754;17.714;2024-03-08T04:53:29;6.10;;;5.53;;
83245;SDS011;73140;46.754;17.714;2024-03-08T04:55:57;6.07;;;5.53;;
83245;SDS011;73140;46.754;17.714;2024-03-08T04:58:23;5.65;;;5.15;;
83245;SDS011;73140;46.754;17.714;2024-03-08T05:00:49;5.93;;;5.35;;
83245;SDS011;73140;46.754;17.714;2024-03-08T05:03:16;6.50;;;5.90;;
83245;SDS011;73140;46.754;17.714;2024-03-08T05:05:42;5.53;;;5.03;;
83245;SDS011;73140;46.754;17.714;2024-03-08T05:08:08;5.90;;;5.35;;
83245;SDS011;73140;46.754;17.714;2024-03-08T05:10:35;5.55;;;5.05;;
83245;SDS011;73140;46.754;17.714;2024-03-08T05:13:01;5.35;;;4.85;;
83245;SDS011;73140;46.754;17.714;2024-03-08T05:15:27;5.18;;;4.78;;
83245;SDS011;73140;46.754;17.714;2024-03-08T05:17:53;4.88;;;4.40;;
83245;SDS011;73140;46.754;17.714;2024-03-08T05:20:21;4.95;;;4.47;;
83245;SDS011;73140;46.754;17.714;2024-03-08T05:22:47;5.03;;;4.63;;
83245;SDS011;73140;46.754;17.714;2024-03-08T05:25:13;5.20;;;4.70;;
83245;SDS011;73140;46.754;17.714;2024-03-08T05:27:41;4.60;;;4.20;;
83245;SDS011;73140;46.754;17.714;2024-03-08T05:30:07;5.03;;;4.63;;
83245;SDS011;73140;46.754;17.714;2024-03-08T05:32:39;5.00;;;4.60;;
83245;SDS011;73140;46.754;17.714;2024-03-08T05:35:05;5.60;;;5.10;;
83245;SDS011;73140;46.754;17.714;2024-03-08T05:37:32;4.78;;;4.38;;
83245;SDS011;73140;46.754;17.714;2024-03-08T05:39:58;4.75;;;4.35;;
83245;SDS011;73140;46.754;17.714;2024-03-08T05:42:24;4.53;;;4.13;;
83245;SDS011;73140;46.754;17.714;2024-03-08T05:44:52;4.60;;;4.20;;
83245;SDS011;73140;46.754;17.714;2024-03-08T05:47:18;4.38;;;3.90;;
83245;SDS011;73140;46.754;17.714;2024-03-08T05:49:44;4.15;;;3.75;;
83245;SDS011;73140;46.754;17.714;2024-03-08T05:52:10;4.28;;;3.95;;
83245;SDS011;73140;46.754;17.714;2024-03-08T05:54:36;4.07;;;3.67;;
83245;SDS011;73140;46.754;17.714;2024-03-08T05:57:03;3.80;;;3.50;;
83245;SDS011;73140;46.754;17.714;2024-03-08T05:59:29;3.30;;;3.00;;
83245;SDS011;73140;46.754;17.714;2024-03-08T06:01:56;3.35;;;3.05;;
83245;SDS011;73140;46.754;17.714;2024-03-08T06:04:23;2.70;;;2.50;;
83245;SDS011;73140;46.754;17.714;2024-03-08T06:06:49;3.08;;;2.78;;
83245;SDS011;73140;46.754;17.714;2024-03-08T06:09:17;3.88;;;3.58;;
83245;SDS011;73140;46.754;17.714;2024-03-08T06:11:48;3.15;;;2.85;;
83245;SDS011;73140;46.754;17.714;2024-03-08T06:14:14;2.63;;;2.42;;
83245;SDS011;73140;46.754;17.714;2024-03-08T06:16:44;2.50;;;2.30;;
83245;SDS011;73140;46.754;17.714;2024-03-08T06:19:12;2.50;;;2.30;;
83245;SDS011;73140;46.754;17.714;2024-03-08T06:21:39;2.10;;;1.90;;
83245;SDS011;73140;46.754;17.714;2024-03-08T06:24:05;2.20;;;2.00;;
83245;SDS011;73140;46.754;17.714;2024-03-08T06:26:31;2.03;;;1.83;;
83245;SDS011;73140;46.754;17.714;2024-03-08T06:28:57;2.00;;;1.80;;
83245;SDS011;73140;46.754;17.714;2024-03-08T06:31:24;2.00;;;1.80;;
83245;SDS011;73140;46.754;17.714;2024-03-08T06:33:50;2.22;;;2.03;;
83245;SDS011;73140;46.754;17.714;2024-03-08T06:36:17;1.90;;;1.70;;
83245;SDS011;73140;46.754;17.714;2024-03-08T06:38:50;1.70;;;1.60;;
83245;SDS011;73140;46.754;17.714;2024-03-08T06:41:16;1.95;;;1.75;;
83245;SDS011;73140;46.754;17.714;2024-03-08T06:43:42;1.88;;;1.67;;
83245;SDS011;73140;46.754;17.714;2024-03-08T06:46:08;2.10;;;1.90;;
83245;SDS011;73140;46.754;17.714;2024-03-08T06:48:35;2.05;;;1.83;;
83245;SDS011;73140;46.754;17.714;2024-03-08T06:51:02;2.10;;;1.90;;
83245;SDS011;73140;46.754;17.714;2024-03-08T06:53:31;2.10;;;1.90;;
83245;SDS011;73140;46.754;17.714;2024-03-08T06:55:57;1.92;;;1.73;;
83245;SDS011;73140;46.754;17.714;2024-03-08T06:58:23;1.92;;;1.60;;
83245;SDS011;73140;46.754;17.714;2024-03-08T07:00:49;1.83;;;1.73;;
83245;SDS011;73140;46.754;17.714;2024-03-08T07:03:18;1.73;;;1.63;;
83245;SDS011;73140;46.754;17.714;2024-03-08T07:05:44;1.60;;;1.50;;
83245;SDS011;73140;46.754;17.714;2024-03-08T07:08:11;1.83;;;1.70;;
83245;SDS011;73140;46.754;17.714;2024-03-08T07:10:42;1.67;;;1.58;;
83245;SDS011;73140;46.754;17.714;2024-03-08T07:13:10;1.85;;;1.73;;
83245;SDS011;73140;46.754;17.714;2024-03-08T07:15:36;1.40;;;1.30;;
83245;SDS011;73140;46.754;17.714;2024-03-08T07:18:02;1.83;;;1.60;;
83245;SDS011;73140;46.754;17.714;2024-03-08T07:20:29;1.65;;;1.48;;
83245;SDS011;73140;46.754;17.714;2024-03-08T07:22:55;1.58;;;1.48;;
83245;SDS011;73140;46.754;17.714;2024-03-08T07:25:21;1.40;;;1.30;;
83245;SDS011;73140;46.754;17.714;2024-03-08T07:27:49;1.40;;;1.30;;
83245;SDS011;73140;46.754;17.714;2024-03-08T07:30:16;1.55;;;1.40;;
83245;SDS011;73140;46.754;17.714;2024-03-08T07:33:03;1.65;;;1.50;;
83245;SDS011;73140;46.754;17.714;2024-03-08T07:35:29;1.70;;;1.40;;
83245;SDS011;73140;46.754;17.714;2024-03-08T07:37:56;1.50;;;1.40;;
83245;SDS011;73140;46.754;17.714;2024-03-08T07:40:23;1.52;;;1.40;;
83245;SDS011;73140;46.754;17.714;2024-03-08T07:42:50;1.27;;;1.13;;
83245;SDS011;73140;46.754;17.714;2024-03-08T07:45:16;1.58;;;1.40;;
83245;SDS011;73140;46.754;17.714;2024-03-08T07:47:42;1.40;;;1.30;;
83245;SDS011;73140;46.754;17.714;2024-03-08T07:50:09;1.50;;;1.38;;
83245;SDS011;73140;46.754;17.714;2024-03-08T07:52:35;1.85;;;1.67;;
83245;SDS011;73140;46.754;17.714;2024-03-08T07:55:02;1.42;;;1.20;;
83245;SDS011;73140;46.754;17.714;2024-03-08T07:57:31;1.45;;;1.30;;
83245;SDS011;73140;46.754;17.714;2024-03-08T07:59:59;1.65;;;1.50;;
83245;SDS011;73140;46.754;17.714;2024-03-08T08:02:25;1.50;;;1.40;;
83245;SDS011;73140;46.754;17.714;2024-03-08T08:04:51;1.63;;;1.50;;
83245;SDS011;73140;46.754;17.714;2024-03-08T08:07:17;1.90;;;1.40;;
83245;SDS011;73140;46.754;17.714;2024-03-08T08:09:43;1.63;;;1.50;;
83245;SDS011;73140;46.754;17.714;2024-03-08T08:12:09;1.83;;;1.60;;
83245;SDS011;73140;46.754;17.714;2024-03-08T08:14:38;1.50;;;1.33;;
83245;SDS011;73140;46.754;17.714;2024-03-08T08:17:05;1.70;;;1.60;;
83245;SDS011;73140;46.754;17.714;2024-03-08T08:19:34;1.67;;;1.58;;
83245;SDS011;73140;46.754;17.714;2024-03-08T08:22:00;1.92;;;1.73;;
83245;SDS011;73140;46.754;17.714;2024-03-08T08:24:27;1.92;;;1.73;;
83245;SDS011;73140;46.754;17.714;2024-03-08T08:26:53;2.00;;;1.55;;
83245;SDS011;73140;46.754;17.714;2024-03-08T08:29:19;1.70;;;1.60;;
83245;SDS011;73140;46.754;17.714;2024-03-08T08:31:48;2.67;;;2.20;;
83245;SDS011;73140;46.754;17.714;2024-03-08T08:34:16;1.88;;;1.75;;
83245;SDS011;73140;46.754;17.714;2024-03-08T08:36:44;2.25;;;2.00;;
83245;SDS011;73140;46.754;17.714;2024-03-08T08:39:10;2.10;;;1.90;;
83245;SDS011;73140;46.754;17.714;2024-03-08T08:41:39;1.92;;;1.73;;
83245;SDS011;73140;46.754;17.714;2024-03-08T08:44:07;2.20;;;2.00;;
83245;SDS011;73140;46.754;17.714;2024-03-08T08:46:35;2.10;;;1.90;;
83245;SDS011;73140;46.754;17.714;2024-03-08T08:49:03;2.10;;;1.90;;
83245;SDS011;73140;46.754;17.714;2024-03-08T08:51:31;2.03;;;1.83;;
83245;SDS011;73140;46.754;17.714;2024-03-08T08:53:59;2.42;;;2.22;;
83245;SDS011;73140;46.754;17.714;2024-03-08T08:56:25;2.50;;;2.30;;
83245;SDS011;73140;46.754;17.714;2024-03-08T08:58:51;2.60;;;2.40;;
83245;SDS011;73140;46.754;17.714;2024-03-08T09:01:18;3.00;;;2.70;;
83245;SDS011;73140;46.754;17.714;2024-03-08T09:03:44;2.60;;;2.40;;
83245;SDS011;73140;46.754;17.714;2024-03-08T09:06:12;2.72;;;2.50;;
83245;SDS011;73140;46.754;17.714;2024-03-08T09:08:40;2.47;;;2.28;;
83245;SDS011;73140;46.754;17.714;2024-03-08T09:11:06;2.60;;;2.40;;
83245;SDS011;73140;46.754;17.714;2024-03-08T09:13:32;2.80;;;2.60;;
83245;SDS011;73140;46.754;17.714;2024-03-08T09:16:04;2.70;;;2.50;;
83245;SDS011;73140;46.754;17.714;2024-03-08T09:18:31;3.15;;;2.85;;
83245;SDS011;73140;46.754;17.714;2024-03-08T09:20:58;3.28;;;2.97;;
83245;SDS011;73140;46.754;17.714;2024-03-08T09:23:25;2.92;;;2.72;;
83245;SDS011;73140;46.754;17.714;2024-03-08T09:25:57;3.70;;;3.40;;
83245;SDS011;73140;46.754;17.714;2024-03-08T09:28:23;3.20;;;2.92;;
83245;SDS011;73140;46.754;17.714;2024-03-08T09:30:49;2.50;;;2.30;;
83245;SDS011;73140;46.754;17.714;2024-03-08T09:33:15;2.42;;;2.22;;
83245;SDS011;73140;46.754;17.714;2024-03-08T09:35:44;2.70;;;2.50;;
83245;SDS011;73140;46.754;17.714;2024-03-08T09:38:12;2.75;;;2.47;;
83245;SDS011;73140;46.754;17.714;2024-03-08T09:40:38;2.80;;;2.60;;
83245;SDS011;73140;46.754;17.714;2024-03-08T09:43:07;2.53;;;2.33;;
83245;SDS011;73140;46.754;17.714;2024-03-08T09:45:35;3.10;;;2.80;;
83245;SDS011;73140;46.754;17.714;2024-03-08T09:48:05;2.90;;;2.70;;
83245;SDS011;73140;46.754;17.714;2024-03-08T09:50:35;2.40;;;2.20;;
83245;SDS011;73140;46.754;17.714;2024-03-08T09:53:01;2.80;;;2.60;;
83245;SDS011;73140;46.754;17.714;2024-03-08T09:55:28;2.70;;;2.50;;
83245;SDS011;73140;46.754;17.714;2024-03-08T09:57:59;2.65;;;2.45;;
83245;SDS011;73140;46.754;17.714;2024-03-08T10:00:47;2.97;;;2.78;;
83245;SDS011;73140;46.754;17.714;2024-03-08T10:03:13;2.60;;;2.40;;
83245;SDS011;73140;46.754;17.714;2024-03-08T10:05:42;2.40;;;2.20;;
83245;SDS011;73140;46.754;17.714;2024-03-08T10:08:10;2.60;;;2.40;;
83245;SDS011;73140;46.754;17.714;2024-03-08T10:10:36;2.67;;;2.47;;
83245;SDS011;73140;46.754;17.714;2024-03-08T10:13:05;2.65;;;2.45;;
83245;SDS011;73140;46.754;17.714;2024-03-08T10:15:32;2.70;;;2.50;;
83245;SDS011;73140;46.754;17.714;2024-03-08T10:18:02;2.38;;;2.17;;
83245;SDS011;73140;46.754;17.714;2024-03-08T10:20:29;2.40;;;2.20;;
83245;SDS011;73140;46.754;17.714;2024-03-08T10:22:58;2.03;;;1.83;;
83245;SDS011;73140;46.754;17.714;2024-03-08T10:25:24;3.03;;;2.72;;
83245;SDS011;73140;46.754;17.714;2024-03-08T10:27:51;2.40;;;2.20;;
83245;SDS011;73140;46.754;17.714;2024-03-08T10:30:17;2.58;;;2.30;;
83245;SDS011;73140;46.754;17.714;2024-03-08T10:32:45;2.22;;;2.03;;
83245;SDS011;73140;46.754;17.714;2024-03-08T10:35:13;2.40;;;2.20;;
83245;SDS011;73140;46.754;17.714;2024-03-08T10:37:41;2.10;;;1.90;;
83245;SDS011;73140;46.754;17.714;2024-03-08T10:40:12;2.30;;;2.10;;
83245;SDS011;73140;46.754;17.714;2024-03-08T10:42:47;2.30;;;2.10;;
83245;SDS011;73140;46.754;17.714;2024-03-08T10:45:19;2.35;;;2.15;;
83245;SDS011;73140;46.754;17.714;2024-03-08T10:47:59;2.17;;;1.98;;
83245;SDS011;73140;46.754;17.714;2024-03-08T10:50:46;1.95;;;1.83;;
83245;SDS011;73140;46.754;17.714;2024-03-08T10:53:15;2.50;;;2.30;;
83245;SDS011;73140;46.754;17.714;2024-03-08T10:55:44;1.90;;;1.70;;
83245;SDS011;73140;46.754;17.714;2024-03-08T10:58:12;1.88;;;1.67;;
83245;SDS011;73140;46.754;17.714;2024-03-08T11:00:38;2.40;;;2.20;;
83245;SDS011;73140;46.754;17.714;2024-03-08T11:03:04;2.22;;;2.03;;
83245;SDS011;73140;46.754;17.714;2024-03-08T11:05:31;2.33;;;2.13;;
83245;SDS011;73140;46.754;17.714;2024-03-08T11:08:02;2.40;;;2.20;;
83245;SDS011;73140;46.754;17.714;2024-03-08T11:10:29;2.17;;;1.98;;
83245;SDS011;73140;46.754;17.714;2024-03-08T11:12:56;2.13;;;1.92;;
83245;SDS011;73140;46.754;17.714;2024-03-08T11:15:24;2.45;;;2.15;;
83245;SDS011;73140;46.754;17.714;2024-03-08T11:17:50;2.05;;;1.85;;
83245;SDS011;73140;46.754;17.714;2024-03-08T11:20:17;2.03;;;1.80;;
83245;SDS011;73140;46.754;17.714;2024-03-08T11:22:49;2.10;;;1.90;;
83245;SDS011;73140;46.754;17.714;2024-03-08T11:28:11;1.85;;;1.75;;
83245;SDS011;73140;46.754;17.714;2024-03-08T11:30:44;2.13;;;1.92;;
83245;SDS011;73140;46.754;17.714;2024-03-08T11:33:14;1.90;;;1.70;;
83245;SDS011;73140;46.754;17.714;2024-03-08T11:35:41;1.80;;;1.70;;
83245;SDS011;73140;46.754;17.714;2024-03-08T11:38:10;1.90;;;1.70;;
83245;SDS011;73140;46.754;17.714;2024-03-08T11:40:36;2.00;;;1.83;;
83245;SDS011;73140;46.754;17.714;2024-03-08T11:43:04;2.03;;;1.83;;
83245;SDS011;73140;46.754;17.714;2024-03-08T11:45:33;2.17;;;1.85;;
83245;SDS011;73140;46.754;17.714;2024-03-08T11:48:01;1.60;;;1.50;;
83245;SDS011;73140;46.754;17.714;2024-03-08T11:50:29;1.60;;;1.50;;
83245;SDS011;73140;46.754;17.714;2024-03-08T11:53:00;1.75;;;1.65;;
83245;SDS011;73140;46.754;17.714;2024-03-08T11:55:27;1.48;;;1.38;;
83245;SDS011;73140;46.754;17.714;2024-03-08T11:57:59;2.03;;;1.85;;
83245;SDS011;73140;46.754;17.714;2024-03-08T12:00:27;1.85;;;1.75;;
83245;SDS011;73140;46.754;17.714;2024-03-08T12:03:04;1.73;;;1.63;;
83245;SDS011;73140;46.754;17.714;2024-03-08T12:05:31;1.63;;;1.52;;
83245;SDS011;73140;46.754;17.714;2024-03-08T12:07:58;1.70;;;1.60;;
83245;SDS011;73140;46.754;17.714;2024-03-08T12:10:25;2.10;;;1.80;;
83245;SDS011;73140;46.754;17.714;2024-03-08T12:12:51;1.90;;;1.80;;
83245;SDS011;73140;46.754;17.714;2024-03-08T12:15:19;1.50;;;1.40;;
83245;SDS011;73140;46.754;17.714;2024-03-08T12:17:47;1.90;;;1.70;;
83245;SDS011;73140;46.754;17.714;2024-03-08T12:20:16;2.05;;;1.80;;
83245;SDS011;73140;46.754;17.714;2024-03-08T12:22:44;1.83;;;1.60;;
83245;SDS011;73140;46.754;17.714;2024-03-08T12:25:10;1.80;;;1.70;;
83245;SDS011;73140;46.754;17.714;2024-03-08T12:27:37;1.70;;;1.60;;
83245;SDS011;73140;46.754;17.714;2024-03-08T12:30:18;1.80;;;1.60;;
83245;SDS011;73140;46.754;17.714;2024-03-08T12:32:50;1.63;;;1.52;;
83245;SDS011;73140;46.754;17.714;2024-03-08T12:35:19;1.70;;;1.60;;
83245;SDS011;73140;46.754;17.714;2024-03-08T12:37:48;1.80;;;1.70;;
83245;SDS011;73140;46.754;17.714;2024-03-08T12:40:16;1.92;;;1.83;;
83245;SDS011;73140;46.754;17.714;2024-03-08T12:42:43;1.52;;;1.42;;
83245;SDS011;73140;46.754;17.714;2024-03-08T12:45:09;1.50;;;1.40;;
83245;SDS011;73140;46.754;17.714;2024-03-08T12:47:35;1.50;;;1.30;;
83245;SDS011;73140;46.754;17.714;2024-03-08T12:50:03;1.65;;;1.55;;
83245;SDS011;73140;46.754;17.714;2024-03-08T12:52:29;1.50;;;1.40;;
83245;SDS011;73140;46.754;17.714;2024-03-08T12:54:55;1.40;;;1.30;;
83245;SDS011;73140;46.754;17.714;2024-03-08T12:57:22;1.60;;;1.50;;
83245;SDS011;73140;46.754;17.714;2024-03-08T12:59:48;1.50;;;1.33;;
83245;SDS011;73140;46.754;17.714;2024-03-08T13:02:15;1.50;;;1.40;;
83245;SDS011;73140;46.754;17.714;2024-03-08T13:04:42;1.42;;;1.33;;
83245;SDS011;73140;46.754;17.714;2024-03-08T13:07:09;1.67;;;1.42;;
83245;SDS011;73140;46.754;17.714;2024-03-08T13:09:35;1.98;;;1.50;;
83245;SDS011;73140;46.754;17.714;2024-03-08T13:12:03;1.60;;;1.50;;
83245;SDS011;73140;46.754;17.714;2024-03-08T13:14:29;1.48;;;1.38;;
83245;SDS011;73140;46.754;17.714;2024-03-08T13:16:57;1.70;;;1.40;;
83245;SDS011;73140;46.754;17.714;2024-03-08T13:19:24;1.40;;;1.23;;
83245;SDS011;73140;46.754;17.714;2024-03-08T13:21:53;1.60;;;1.50;;
83245;SDS011;73140;46.754;17.714;2024-03-08T13:24:21;1.60;;;1.50;;
83245;SDS011;73140;46.754;17.714;2024-03-08T13:26:47;1.40;;;1.30;;
83245;SDS011;73140;46.754;17.714;2024-03-08T13:29:13;1.67;;;1.35;;
83245;SDS011;73140;46.754;17.714;2024-03-08T13:31:40;1.50;;;1.40;;
83245;SDS011;73140;46.754;17.714;2024-03-08T13:34:06;4.20;;;2.50;;
83245;SDS011;73140;46.754;17.714;2024-03-08T13:36:32;2.83;;;2.08;;
83245;SDS011;73140;46.754;17.714;2024-03-08T13:39:04;1.50;;;1.40;;
83245;SDS011;73140;46.754;17.714;2024-03-08T13:41:42;1.45;;;1.35;;
83245;SDS011;73140;46.754;17.714;2024-03-08T13:44:08;1.75;;;1.65;;
83245;SDS011;73140;46.754;17.714;2024-03-08T13:46:34;1.42;;;1.33;;
83245;SDS011;73140;46.754;17.714;2024-03-08T13:49:03;1.40;;;1.30;;
83245;SDS011;73140;46.754;17.714;2024-03-08T13:51:35;1.30;;;1.13;;
83245;SDS011;73140;46.754;17.714;2024-03-08T13:54:01;1.30;;;1.20;;
83245;SDS011;73140;46.754;17.714;2024-03-08T13:56:27;1.55;;;1.40;;
83245;SDS011;73140;46.754;17.714;2024-03-08T13:58:57;1.40;;;1.30;;
83245;SDS011;73140;46.754;17.714;2024-03-08T14:01:24;1.50;;;1.40;;
83245;SDS011;73140;46.754;17.714;2024-03-08T14:03:51;1.55;;;1.45;;
83245;SDS011;73140;46.754;17.714;2024-03-08T14:06:17;1.50;;;1.40;;
83245;SDS011;73140;46.754;17.714;2024-03-08T14:08:43;1.60;;;1.50;;
83245;SDS011;73140;46.754;17.714;2024-03-08T14:11:09;1.60;;;1.50;;
83245;SDS011;73140;46.754;17.714;2024-03-08T14:13:42;1.80;;;1.70;;
83245;SDS011;73140;46.754;17.714;2024-03-08T14:16:16;1.88;;;1.73;;
83245;SDS011;73140;46.754;17.714;2024-03-08T14:18:43;1.73;;;1.60;;
83245;SDS011;73140;46.754;17.714;2024-03-08T14:21:09;1.50;;;1.40;;
83245;SDS011;73140;46.754;17.714;2024-03-08T14:23:35;1.70;;;1.50;;
83245;SDS011;73140;46.754;17.714;2024-03-08T14:26:02;1.42;;;1.33;;
83245;SDS011;73140;46.754;17.714;2024-03-08T14:28:29;1.90;;;1.80;;
83245;SDS011;73140;46.754;17.714;2024-03-08T14:30:57;1.80;;;1.70;;
83245;SDS011;73140;46.754;17.714;2024-03-08T14:33:25;1.70;;;1.50;;
83245;SDS011;73140;46.754;17.714;2024-03-08T14:35:51;1.60;;;1.50;;
83245;SDS011;73140;46.754;17.714;2024-03-08T14:38:17;1.77;;;1.67;;